createdAt,value
2022-07-25T00:01:14.827Z,0.0
2022-07-25T00:06:41.164Z,0.0
2022-07-25T00:11:27.919Z,0.0
2022-07-25T00:16:54.365Z,0.0
2022-07-25T00:22:56.963Z,0.0
2022-07-25T00:26:47.209Z,0.0
2022-07-25T00:31:53.593Z,0.0
2022-07-25T00:36:59.997Z,0.0
2022-07-25T00:42:26.436Z,0.0
2022-07-25T00:47:12.775Z,0.0
2022-07-25T00:55:07.513Z,0.0
2022-07-25T00:57:25.577Z,0.0
2022-07-25T01:02:32.032Z,0.0
2022-07-25T01:07:38.386Z,0.0
2022-07-25T01:12:44.762Z,0.0
2022-07-25T01:18:11.234Z,0.0
2022-07-25T01:26:05.967Z,0.0
2022-07-25T01:28:03.986Z,0.0
2022-07-25T01:33:34.419Z,0.0
2022-07-25T01:38:16.768Z,0.0
2022-07-25T01:44:35.321Z,0.0
2022-07-25T01:49:13.801Z,0.0
2022-07-25T01:53:39.534Z,0.0
2022-07-25T01:58:45.960Z,0.0
2022-07-25T02:04:36.544Z,0.0
2022-07-25T02:08:59.887Z,0.0
2022-07-25T02:14:30.297Z,0.0
2022-07-25T02:19:12.639Z,0.0
2022-07-25T02:24:19.010Z,0.0
2022-07-25T02:29:45.446Z,0.0
2022-07-25T02:34:31.886Z,0.0
2022-07-25T02:39:38.299Z,0.0
2022-07-25T02:44:44.750Z,0.0
2022-07-25T02:50:15.493Z,0.0
2022-07-25T02:54:57.868Z,0.0
2022-07-25T03:00:04.221Z,0.0
2022-07-25T03:05:30.639Z,4.0
2022-07-25T03:10:41.025Z,4.0
2022-07-25T03:15:47.579Z,8.0
2022-07-25T03:20:49.964Z,20.0
2022-07-25T03:26:48.449Z,32.0
2022-07-25T03:30:42.720Z,56.0
2022-07-25T03:35:49.090Z,108.0
2022-07-25T03:40:55.481Z,184.0
2022-07-25T03:46:26.034Z,260.0
2022-07-25T03:51:08.266Z,360.0
2022-07-25T03:56:14.650Z,480.0
2022-07-25T04:02:33.293Z,640.0
2022-07-25T04:06:27.437Z,824.0
2022-07-25T04:11:33.813Z,900.0
2022-07-25T04:16:40.232Z,944.0
2022-07-25T04:21:46.585Z,1060.0
2022-07-25T04:26:53.023Z,1212.0
2022-07-25T04:31:59.437Z,1392.0
2022-07-25T04:37:05.766Z,1504.0
2022-07-25T04:42:12.155Z,1520.0
2022-07-25T04:47:18.536Z,1772.0
2022-07-25T04:52:24.919Z,1752.0
2022-07-25T04:57:31.312Z,2008.0
2022-07-25T05:03:21.758Z,2544.0
2022-07-25T05:07:44.050Z,3320.0
2022-07-25T05:12:50.416Z,3908.0
2022-07-25T05:17:46.799Z,4044.0
2022-07-25T05:23:03.258Z,3404.0
2022-07-25T05:27:59.736Z,3608.0
2022-07-25T05:33:16.142Z,3960.0
2022-07-25T05:38:36.560Z,4132.0
2022-07-25T05:43:48.968Z,5056.0
2022-07-25T05:48:49.413Z,5276.0
2022-07-25T05:53:31.689Z,6216.0
2022-07-25T05:58:48.066Z,6068.0
2022-07-25T06:04:14.484Z,6464.0
2022-07-25T06:09:24.868Z,5540.0
2022-07-25T06:14:07.514Z,6172.0
2022-07-25T06:19:13.634Z,6320.0
2022-07-25T06:24:20.008Z,6688.0
2022-07-25T06:29:26.406Z,7364.0
2022-07-25T06:34:32.839Z,8224.0
2022-07-25T06:39:29.153Z,8380.0
2022-07-25T06:44:45.731Z,7128.0
2022-07-25T06:49:42.073Z,7496.0
2022-07-25T06:54:57.469Z,9432.0
2022-07-25T06:59:54.828Z,10588.0
2022-07-25T07:12:23.042Z,11300.0
2022-07-25T07:25:36.921Z,11068.0
2022-07-25T07:31:19.334Z,9140.0
2022-07-25T07:35:57.282Z,7064.0
2022-07-25T07:41:24.612Z,6472.0
2022-07-25T07:46:11.025Z,7672.0
2022-07-25T07:51:21.350Z,11108.0
2022-07-25T07:57:24.420Z,12964.0
2022-07-25T08:08:22.285Z,15168.0
2022-07-25T08:12:20.537Z,13916.0
2022-07-25T08:17:31.069Z,11724.0
2022-07-25T08:23:16.719Z,9868.0
2022-07-25T08:29:04.911Z,13068.0
2022-07-25T08:33:30.573Z,11684.0
2022-07-25T08:39:01.031Z,15808.0
2022-07-25T08:43:43.355Z,15104.0
2022-07-25T08:49:17.913Z,24192.0
2022-07-25T09:00:06.259Z,24064.0
2022-07-25T09:04:12.594Z,28544.0
2022-07-25T09:09:18.999Z,28992.0
2022-07-25T09:14:29.398Z,24608.0
2022-07-25T09:19:31.798Z,11320.0
2022-07-25T09:25:22.265Z,14280.0
2022-07-25T09:29:44.554Z,16064.0
2022-07-25T09:34:51.003Z,25408.0
2022-07-25T09:39:57.922Z,16000.0
2022-07-25T09:45:31.553Z,21856.0
2022-07-25T09:50:10.653Z,20896.0
2022-07-25T09:55:37.082Z,36608.0
2022-07-25T10:00:18.975Z,45856.0
2022-07-25T10:05:29.819Z,42944.0
2022-07-25T10:10:40.267Z,33504.0
2022-07-25T10:15:42.627Z,25632.0
2022-07-25T10:20:49.039Z,26144.0
2022-07-25T10:25:55.479Z,21184.0
2022-07-25T10:31:26.149Z,23200.0
2022-07-25T10:36:10.001Z,55328.0
2022-07-25T10:41:16.379Z,24704.0
2022-07-25T10:46:22.849Z,25504.0
2022-07-25T10:51:35.105Z,29984.0
2022-07-25T10:56:35.598Z,46208.0
2022-07-25T11:01:42.102Z,45664.0
2022-07-25T11:06:51.504Z,26080.0
2022-07-25T11:12:01.899Z,23136.0
2022-07-25T11:18:16.408Z,27328.0
2022-07-25T11:22:00.645Z,38144.0
2022-07-25T11:27:17.053Z,26016.0
2022-07-25T11:32:27.436Z,28672.0
2022-07-25T11:37:29.817Z,29216.0
2022-07-25T11:42:50.234Z,58752.0
2022-07-25T11:47:42.588Z,58080.0
2022-07-25T11:52:38.936Z,25728.0
2022-07-25T11:58:39.425Z,25664.0
2022-07-25T12:03:01.902Z,40640.0
2022-07-25T12:08:08.088Z,36320.0
2022-07-25T12:13:38.509Z,12616.0
2022-07-25T12:18:20.843Z,16832.0
2022-07-25T12:23:27.216Z,13428.0
2022-07-25T12:33:29.961Z,12540.0
2022-07-25T12:38:49.392Z,14660.0
2022-07-25T12:43:52.792Z,13444.0
2022-07-25T12:48:49.217Z,16032.0
2022-07-25T12:54:08.928Z,16800.0
2022-07-25T12:59:01.936Z,18688.0
2022-07-25T13:04:08.317Z,17760.0
2022-07-25T13:09:24.717Z,43328.0
2022-07-25T13:14:31.112Z,23520.0
2022-07-25T13:19:57.506Z,20832.0
2022-07-25T13:24:33.925Z,17952.0
2022-07-25T13:29:50.329Z,18208.0
2022-07-25T13:35:20.439Z,15360.0
2022-07-25T13:40:03.209Z,14000.0
2022-07-25T13:44:59.579Z,15968.0
2022-07-25T13:50:20.169Z,13100.0
2022-07-25T13:55:13.097Z,17504.0
2022-07-25T14:00:29.494Z,13892.0
2022-07-25T14:05:35.879Z,6148.0
2022-07-25T14:10:42.257Z,5992.0
2022-07-25T14:15:52.648Z,7092.0
2022-07-25T14:20:45.029Z,9704.0
2022-07-25T14:26:05.434Z,8424.0
2022-07-25T14:31:31.982Z,7964.0
2022-07-25T14:36:04.212Z,6316.0
2022-07-25T14:46:27.681Z,3308.0
2022-07-25T14:51:58.067Z,2724.0
2022-07-25T14:56:40.411Z,2052.0
2022-07-25T15:01:36.877Z,1744.0
2022-07-25T15:06:57.162Z,2032.0
2022-07-25T15:17:06.558Z,5272.0
2022-07-25T15:23:06.024Z,8516.0
2022-07-25T15:27:20.350Z,11600.0
2022-07-25T15:40:32.203Z,10520.0
2022-07-25T15:45:39.580Z,9772.0
2022-07-25T15:50:45.974Z,10136.0
2022-07-25T15:55:55.945Z,7976.0
2022-07-25T16:01:22.470Z,7436.0
2022-07-25T16:06:08.691Z,8292.0
2022-07-25T16:11:15.087Z,8184.0
2022-07-25T16:16:45.636Z,7160.0
2022-07-25T16:21:47.941Z,8336.0
2022-07-25T16:26:34.278Z,6980.0
2022-07-25T16:31:54.767Z,5936.0
2022-07-25T16:36:46.197Z,5232.0
2022-07-25T16:41:53.558Z,4616.0
2022-07-25T16:46:59.990Z,4436.0
2022-07-25T16:52:06.331Z,4316.0
2022-07-25T16:57:16.716Z,6416.0
2022-07-25T17:02:19.479Z,6584.0
2022-07-25T17:07:25.793Z,5040.0
2022-07-25T17:12:22.255Z,3804.0
2022-07-25T17:17:38.650Z,7720.0
2022-07-25T17:23:19.132Z,6564.0
2022-07-25T17:28:26.531Z,6900.0
2022-07-25T17:33:36.935Z,6480.0
2022-07-25T17:38:39.297Z,5068.0
2022-07-25T17:43:49.701Z,3264.0
2022-07-25T17:48:56.215Z,3048.0
2022-07-25T17:54:00.044Z,3516.0
2022-07-25T17:59:06.429Z,3172.0
2022-07-25T18:04:12.885Z,2556.0
2022-07-25T18:09:43.337Z,2568.0
2022-07-25T18:14:25.696Z,2648.0
2022-07-25T18:19:36.097Z,2492.0
2022-07-25T18:24:42.446Z,2608.0
2022-07-25T18:29:44.902Z,2168.0
2022-07-25T18:34:51.409Z,1776.0
2022-07-25T18:39:57.829Z,1532.0
2022-07-25T18:46:04.454Z,1212.0
2022-07-25T18:49:59.601Z,1028.0
2022-07-25T18:55:16.969Z,896.0
2022-07-25T19:00:27.372Z,708.0
2022-07-25T19:05:29.777Z,520.0
2022-07-25T19:10:26.098Z,384.0
2022-07-25T19:15:42.559Z,264.0
2022-07-25T19:20:48.905Z,152.0
2022-07-25T19:25:59.311Z,68.0
2022-07-25T19:30:51.725Z,24.0
2022-07-25T19:35:58.043Z,28.0
2022-07-25T19:41:37.484Z,28.0
2022-07-25T19:46:23.961Z,24.0
2022-07-25T19:51:20.943Z,16.0
2022-07-25T19:56:36.365Z,8.0
2022-07-25T20:01:43.886Z,4.0
2022-07-25T20:06:50.181Z,0.0
2022-07-25T20:13:01.459Z,0.0
2022-07-25T20:17:03.056Z,0.0
2022-07-25T20:22:37.403Z,0.0
2022-07-25T20:27:15.741Z,0.0
2022-07-25T20:32:22.118Z,0.0
2022-07-25T20:37:30.072Z,0.0
2022-07-25T20:43:00.503Z,0.0
2022-07-25T20:47:42.841Z,0.0
2022-07-25T20:52:39.220Z,0.0
2022-07-25T20:57:58.632Z,0.0
2022-07-25T21:08:57.404Z,0.0
2022-07-25T21:13:44.758Z,0.0
2022-07-25T21:19:43.288Z,0.0
2022-07-25T21:23:57.547Z,0.0
2022-07-25T21:29:04.355Z,0.0
2022-07-25T21:34:11.980Z,0.0
2022-07-25T21:39:22.380Z,0.0
2022-07-25T21:44:24.805Z,0.0
2022-07-25T21:49:40.805Z,0.0
2022-07-25T21:55:29.731Z,0.0
2022-07-25T21:59:44.004Z,0.0
2022-07-25T22:04:50.619Z,0.0
2022-07-25T22:09:57.605Z,0.0
2022-07-25T22:20:16.248Z,0.0
2022-07-25T22:26:15.755Z,0.0
2022-07-25T22:31:46.307Z,0.0
2022-07-25T22:35:36.406Z,0.0
2022-07-25T22:40:42.796Z,0.0
2022-07-25T22:45:53.341Z,0.0
2022-07-25T22:50:59.723Z,0.0
2022-07-25T22:56:06.086Z,0.0
2022-07-25T23:01:12.480Z,0.0
2022-07-25T23:06:14.879Z,0.0
2022-07-25T23:11:21.235Z,0.0
2022-07-25T23:16:51.782Z,0.0
2022-07-25T23:24:26.352Z,0.0
2022-07-25T23:26:40.397Z,0.0
2022-07-25T23:31:46.844Z,0.0
2022-07-25T23:38:17.348Z,0.0
2022-07-25T23:47:05.131Z,0.0
2022-07-25T23:52:11.385Z,0.0
2022-07-25T23:57:22.809Z,0.0
